Time;durP1;ratioP1;P1;durP2;ratioP2;P2;SDS_P1;SDS_P2;PMS_P1;PMS_P2;Temp;Humidity;BMP_temperature;BMP_pressure;BME280_temperature;BME280_humidity;BME280_pressure;Samples;Min_cycle;Max_cycle;Signal;HPM_P1;HPM_P2
2022/04/11 00:01:45;;;;;;;4.97;2.00;;;;;;;5.34;59.20;100162.03;4359833;32;34266;-80
2022/04/11 00:04:31;;;;;;;4.62;2.25;;;;;;;5.31;59.31;100161.75;4366484;32;34694;-80
2022/04/11 00:07:18;;;;;;;4.60;2.60;;;;;;;5.16;59.72;100166.00;4370688;32;35268;-80
2022/04/11 00:10:04;;;;;;;4.05;2.50;;;;;;;4.93;60.63;100160.97;4371505;32;35541;-80
2022/04/11 00:12:50;;;;;;;5.22;2.45;;;;;;;5.15;59.94;100163.53;4379213;32;34564;-79
2022/04/11 00:15:39;;;;;;;4.07;2.28;;;;;;;5.11;60.14;100160.53;4368176;32;34965;-80
2022/04/11 00:18:25;;;;;;;3.83;2.28;;;;;;;4.55;61.48;100162.00;4369684;32;35598;-81
2022/04/11 00:21:12;;;;;;;5.97;3.20;;;;;;;4.63;62.30;100167.78;4365054;32;35652;-80
2022/04/11 00:23:58;;;;;;;5.00;2.55;;;;;;;3.41;66.56;100167.28;4359618;32;34734;-81
2022/04/11 00:26:44;;;;;;;4.95;2.80;;;;;;;3.74;66.37;100174.47;4361406;32;33847;-81
2022/04/11 00:29:31;;;;;;;5.32;2.58;;;;;;;3.83;65.66;100169.44;4359804;32;35636;-81
2022/04/11 00:32:17;;;;;;;5.05;2.33;;;;;;;3.95;64.94;100180.94;4348230;32;34887;-80
2022/04/11 00:35:04;;;;;;;5.12;2.70;;;;;;;3.34;67.62;100178.31;4357494;32;35432;-80
2022/04/11 00:37:50;;;;;;;6.40;2.65;;;;;;;3.46;67.51;100186.31;4364108;32;33923;-80
2022/04/11 00:40:36;;;;;;;6.28;3.17;;;;;;;3.83;64.79;100183.78;4364018;32;34097;-81
2022/04/11 00:43:35;;;;;;;4.80;2.72;;;;;;;3.92;65.26;100173.31;4364072;32;36071;-81
2022/04/11 00:46:22;;;;;;;4.97;2.42;;;;;;;4.19;63.75;100181.50;4369873;32;35425;-81
2022/04/11 00:49:08;;;;;;;6.78;2.78;;;;;;;4.10;63.70;100185.75;4380723;32;34085;-81
2022/04/11 00:51:55;;;;;;;5.60;2.80;;;;;;;3.90;64.66;100185.50;4355807;32;34615;-81
2022/04/11 00:54:41;;;;;;;5.45;2.70;;;;;;;3.99;64.42;100192.94;4366128;32;34677;-81
2022/04/11 00:57:28;;;;;;;7.35;3.35;;;;;;;4.24;63.25;100186.13;4361384;32;35198;-81
2022/04/11 01:00:14;;;;;;;6.72;3.03;;;;;;;4.22;63.59;100191.84;4366996;32;33701;-80
2022/04/11 01:03:01;;;;;;;6.32;2.78;;;;;;;4.40;62.76;100189.84;4356792;32;35565;-81
2022/04/11 01:05:47;;;;;;;5.35;2.75;;;;;;;4.33;62.65;100187.34;4358423;32;35028;-80
2022/04/11 01:08:34;;;;;;;5.68;2.70;;;;;;;4.20;62.76;100183.13;4353073;32;34367;-80
2022/04/11 01:11:21;;;;;;;7.05;2.85;;;;;;;4.33;62.44;100186.53;4354820;32;34944;-80
2022/04/11 01:14:07;;;;;;;5.18;2.58;;;;;;;4.34;62.24;100191.69;4368701;32;34677;-81
2022/04/11 01:16:53;;;;;;;5.07;2.95;;;;;;;4.40;62.28;100185.22;4369464;32;34695;-81
2022/04/11 01:19:39;;;;;;;5.97;3.33;;;;;;;3.30;66.11;100188.00;4365189;32;34373;-80
2022/04/11 01:22:26;;;;;;;5.50;2.72;;;;;;;2.66;68.87;100187.56;4374712;32;35087;-80
2022/04/11 01:25:18;;;;;;;4.85;2.75;;;;;;;2.25;71.34;100192.25;4348928;32;34572;-81
2022/04/11 01:28:05;;;;;;;7.43;3.25;;;;;;;2.51;71.00;100185.41;4355696;32;36004;-80
2022/04/11 01:30:53;;;;;;;8.77;3.12;;;;;;;2.17;73.19;100195.34;4363749;32;35458;-80
2022/04/11 01:33:40;;;;;;;10.50;2.90;;;;;;;2.80;70.82;100198.88;4359229;32;34350;-80
2022/04/11 01:36:27;;;;;;;4.45;2.95;;;;;;;3.10;68.76;100204.78;4371770;32;35523;-81
2022/04/11 01:39:13;;;;;;;6.93;3.10;;;;;;;2.66;69.54;100204.59;4371497;32;35095;-81
2022/04/11 01:41:59;;;;;;;6.07;2.90;;;;;;;2.65;70.95;100213.78;4371596;32;34063;-81
2022/04/11 01:44:45;;;;;;;5.15;3.17;;;;;;;3.11;69.13;100217.25;4376188;32;35134;-81
2022/04/11 01:47:32;;;;;;;6.15;3.17;;;;;;;2.91;69.46;100222.34;4361126;32;34618;-81
2022/04/11 01:50:18;;;;;;;5.70;2.83;;;;;;;2.24;72.68;100229.28;4373665;32;34990;-81
2022/04/11 01:53:13;;;;;;;6.43;2.92;;;;;;;2.32;72.81;100228.06;4364553;32;35225;-81
2022/04/11 01:55:59;;;;;;;5.78;3.12;;;;;;;2.48;71.45;100223.78;4354352;32;34005;-81
2022/04/11 01:58:46;;;;;;;7.87;3.17;;;;;;;1.70;74.31;100225.22;4373118;32;34291;-81
2022/04/11 02:01:33;;;;;;;7.57;3.75;;;;;;;1.42;77.43;100220.56;4359675;32;36210;-80
2022/04/11 02:04:19;;;;;;;7.20;3.97;;;;;;;1.60;75.88;100231.25;4362769;32;34642;-80
2022/04/11 02:07:06;;;;;;;6.72;3.22;;;;;;;1.16;80.24;100232.66;4363064;32;35150;-80
2022/04/11 02:09:53;;;;;;;6.03;3.42;;;;;;;2.05;76.32;100229.69;4353369;32;35667;-80
2022/04/11 02:12:39;;;;;;;6.87;3.47;;;;;;;1.62;78.73;100225.59;4355738;32;34475;-80
2022/04/11 02:15:26;;;;;;;7.18;3.70;;;;;;;2.27;74.86;100232.56;4369339;32;34328;-80
2022/04/11 02:18:12;;;;;;;6.95;3.87;;;;;;;1.72;77.80;100233.91;4369040;32;34818;-80
2022/04/11 02:20:59;;;;;;;7.75;3.62;;;;;;;2.19;76.03;100236.47;4378791;32;35120;-81
2022/04/11 02:23:46;;;;;;;7.70;3.42;;;;;;;2.79;72.59;100230.53;4376235;32;36006;-81
2022/04/11 02:26:32;;;;;;;6.05;3.37;;;;;;;2.82;72.53;100230.03;4365200;32;35439;-81
2022/04/11 02:29:19;;;;;;;6.55;3.70;;;;;;;3.27;70.48;100236.41;4379967;32;35014;-81
2022/04/11 02:32:06;;;;;;;5.37;2.97;;;;;;;3.12;70.69;100242.44;4367980;32;35564;-81
2022/04/11 02:34:53;;;;;;;7.78;3.90;;;;;;;2.76;71.10;100241.00;4364352;32;35678;-81
2022/04/11 02:37:39;;;;;;;7.70;3.70;;;;;;;3.30;69.33;100246.75;4336839;32;34608;-81
2022/04/11 02:40:26;;;;;;;6.87;3.28;;;;;;;2.77;71.33;100240.78;4351115;32;35188;-81
2022/04/11 02:43:14;;;;;;;5.47;3.75;;;;;;;1.59;78.15;100243.06;4375604;32;34099;-81
2022/04/11 02:46:01;;;;;;;6.07;3.55;;;;;;;0.89;81.45;100249.31;4369470;32;33848;-81
2022/04/11 02:48:47;;;;;;;8.00;3.65;;;;;;;1.93;78.69;100245.97;4373930;32;35481;-81
2022/04/11 02:51:34;;;;;;;7.75;3.75;;;;;;;1.77;78.37;100251.06;4366655;32;33979;-81
2022/04/11 02:54:20;;;;;;;6.50;3.42;;;;;;;1.95;76.33;100260.06;4358249;32;35564;-81
2022/04/11 02:57:07;;;;;;;8.65;3.85;;;;;;;1.51;78.76;100256.97;4367617;32;35075;-80
2022/04/11 02:59:53;;;;;;;7.90;3.85;;;;;;;0.95;81.69;100256.47;4358263;32;35360;-80
2022/04/11 03:02:40;;;;;;;7.68;3.67;;;;;;;1.37;81.60;100266.34;4364592;32;34075;-80
2022/04/11 03:05:27;;;;;;;7.65;3.85;;;;;;;1.25;82.70;100253.69;4358723;32;34529;-80
2022/04/11 03:08:14;;;;;;;7.15;4.05;;;;;;;0.84;85.10;100260.78;4353438;32;35008;-80
2022/04/11 03:11:00;;;;;;;8.10;4.30;;;;;;;0.34;86.70;100253.03;4363577;32;34628;-80
2022/04/11 03:13:48;;;;;;;7.85;4.00;;;;;;;0.45;88.80;100262.19;4374553;32;33940;-80
2022/04/11 03:16:35;;;;;;;7.62;3.95;;;;;;;0.58;87.90;100271.97;4366380;32;34684;-80
2022/04/11 03:19:21;;;;;;;7.28;3.65;;;;;;;0.42;89.71;100262.66;4355203;32;35606;-80
2022/04/11 03:22:10;;;;;;;7.87;4.00;;;;;;;0.58;88.92;100264.72;4373022;32;34040;-81
2022/04/11 03:24:57;;;;;;;8.57;3.72;;;;;;;0.99;86.58;100267.63;4372518;32;34731;-80
2022/04/11 03:27:44;;;;;;;6.78;3.50;;;;;;;1.37;83.78;100274.44;4375841;32;35488;-80
2022/04/11 03:30:31;;;;;;;6.70;3.80;;;;;;;1.37;83.50;100269.03;4357546;32;34957;-80
2022/04/11 03:33:17;;;;;;;8.70;4.00;;;;;;;1.86;82.01;100270.41;4363844;32;34462;-80
2022/04/11 03:36:05;;;;;;;8.38;3.97;;;;;;;1.22;83.39;100274.91;4358951;32;34210;-80
2022/04/11 03:38:51;;;;;;;6.35;3.62;;;;;;;1.20;83.31;100274.34;4368410;32;33488;-80
2022/04/11 03:41:43;;;;;;;7.20;4.53;;;;;;;0.99;85.11;100281.09;4357774;32;34930;-80
2022/04/11 03:44:29;;;;;;;7.53;3.95;;;;;;;1.31;83.96;100290.53;4346419;32;35507;-80
2022/04/11 03:47:16;;;;;;;6.12;3.40;;;;;;;1.68;81.95;100293.00;4365987;32;35664;-80
2022/04/11 03:50:03;;;;;;;5.70;3.47;;;;;;;1.66;81.64;100295.13;4370910;32;34673;-80
2022/04/11 03:52:50;;;;;;;6.45;3.55;;;;;;;1.52;82.41;100297.22;4366651;32;36029;-80
2022/04/11 03:55:37;;;;;;;6.45;3.70;;;;;;;1.36;83.29;100297.94;4366063;32;35085;-80
2022/04/11 03:58:23;;;;;;;7.12;4.15;;;;;;;1.05;86.05;100302.59;4368274;32;33733;-80
2022/04/11 04:01:10;;;;;;;9.35;4.00;;;;;;;1.22;85.05;100302.72;4367951;32;34722;-80
2022/04/11 04:03:57;;;;;;;8.73;4.32;;;;;;;0.86;86.41;100303.72;4364476;32;34980;-80
2022/04/11 04:06:43;;;;;;;6.30;3.80;;;;;;;0.98;85.27;100306.47;4360661;32;35476;-81
2022/04/11 04:09:30;;;;;;;9.32;4.35;;;;;;;0.78;85.63;100306.75;4374754;32;35103;-81
2022/04/11 04:12:19;;;;;;;7.87;4.20;;;;;;;1.11;87.18;100311.63;4362588;32;35586;-81
2022/04/11 04:15:06;;;;;;;9.38;4.97;;;;;;;1.70;82.29;100317.06;4358601;32;34749;-81
2022/04/11 04:17:53;;;;;;;7.10;4.22;;;;;;;1.94;80.57;100315.19;4368808;32;34629;-81
2022/04/11 04:20:40;;;;;;;7.00;4.30;;;;;;;2.46;78.22;100315.16;4356374;32;34108;-81
2022/04/11 04:23:27;;;;;;;7.65;4.15;;;;;;;2.30;77.55;100319.44;4357242;32;34342;-81
2022/04/11 04:26:14;;;;;;;8.95;4.32;;;;;;;1.68;78.56;100321.87;4362499;32;34485;-80
2022/04/11 04:29:00;;;;;;;11.63;4.60;;;;;;;1.43;81.63;100331.06;4349282;32;35034;-80
2022/04/11 04:31:49;;;;;;;8.10;3.95;;;;;;;1.32;83.83;100329.16;4349751;32;34047;-80
2022/04/11 04:34:37;;;;;;;8.80;3.72;;;;;;;1.40;83.67;100325.31;4347979;32;34614;-80
2022/04/11 04:37:24;;;;;;;11.73;4.00;;;;;;;2.15;78.69;100336.16;4359626;32;34457;-80
2022/04/11 04:40:11;;;;;;;9.07;3.65;;;;;;;1.64;81.40;100343.16;4363838;32;34520;-79
2022/04/11 04:42:58;;;;;;;7.50;3.80;;;;;;;2.12;80.84;100333.94;4356973;32;33745;-81
2022/04/11 04:45:45;;;;;;;7.40;3.78;;;;;;;1.96;81.12;100340.06;4360311;32;34694;-80
2022/04/11 04:48:33;;;;;;;7.40;3.60;;;;;;;2.27;78.43;100338.84;4349794;32;34894;-80
2022/04/11 04:51:20;;;;;;;7.80;3.65;;;;;;;1.42;84.89;100339.38;4374915;32;34684;-80
2022/04/11 04:54:06;;;;;;;8.13;3.92;;;;;;;1.29;84.71;100343.13;4353388;32;33732;-81
2022/04/11 04:56:53;;;;;;;7.60;4.05;;;;;;;1.32;85.46;100340.78;4357098;32;34720;-81
2022/04/11 04:59:40;;;;;;;8.50;3.80;;;;;;;1.52;84.26;100351.25;4355447;32;35022;-80
2022/04/11 05:02:36;;;;;;;7.57;3.45;;;;;;;1.72;83.63;100355.50;4351407;32;35697;-78
2022/04/11 05:05:24;;;;;;;7.55;3.60;;;;;;;1.64;83.79;100343.16;4337173;32;34608;-81
2022/04/11 05:08:11;;;;;;;6.05;3.28;;;;;;;1.65;84.09;100344.81;4357458;32;35176;-82
2022/04/11 05:10:58;;;;;;;9.88;3.42;;;;;;;1.67;83.92;100344.56;4344636;32;34958;-83
2022/04/11 05:13:47;;;;;;;7.00;3.45;;;;;;;1.93;82.40;100357.56;4354564;32;35379;-82
2022/04/11 05:16:37;;;;;;;6.32;3.45;;;;;;;2.21;82.22;100356.84;4359081;32;34846;-81
2022/04/11 05:19:25;;;;;;;9.00;4.20;;;;;;;2.24;81.52;100363.66;4364184;32;35525;-80
2022/04/11 05:22:11;;;;;;;7.70;3.40;;;;;;;2.79;78.84;100354.19;4363936;32;34942;-82
2022/04/11 05:24:57;;;;;;;6.97;3.20;;;;;;;2.74;79.02;100359.53;4360254;32;34788;-82
2022/04/11 05:27:44;;;;;;;5.90;3.35;;;;;;;2.48;80.59;100353.62;4370164;32;33647;-82
2022/04/11 05:30:34;;;;;;;5.82;2.75;;;;;;;2.31;79.78;100366.25;4364957;32;34646;-84
2022/04/11 05:33:20;;;;;;;6.10;2.65;;;;;;;2.74;76.37;100362.22;4358982;32;34697;-83
2022/04/11 05:36:07;;;;;;;10.70;2.97;;;;;;;3.10;73.88;100364.53;4359521;32;34303;-83
2022/04/11 05:38:53;;;;;;;5.03;2.60;;;;;;;2.37;77.98;100360.69;4351902;32;34074;-82
2022/04/11 05:41:39;;;;;;;5.82;2.62;;;;;;;2.62;77.71;100365.00;4362143;32;35649;-82
2022/04/11 05:44:26;;;;;;;6.95;2.37;;;;;;;2.95;76.69;100366.13;4359522;32;35097;-82
2022/04/11 05:47:12;;;;;;;7.07;2.80;;;;;;;2.51;76.39;100366.66;4350318;32;34538;-82
2022/04/11 05:49:59;;;;;;;5.30;2.62;;;;;;;2.75;75.58;100364.69;4362148;32;34123;-83
2022/04/11 05:52:45;;;;;;;4.75;2.35;;;;;;;3.09;74.20;100368.28;4358938;32;34296;-81
2022/04/11 05:55:32;;;;;;;5.43;2.37;;;;;;;3.10;73.90;100366.41;4370006;32;34974;-83
2022/04/11 05:58:18;;;;;;;5.62;2.08;;;;;;;3.07;73.64;100373.13;4365410;32;35465;-81
2022/04/11 06:01:04;;;;;;;6.20;2.42;;;;;;;3.27;71.80;100363.72;4356502;32;34200;-81
2022/04/11 06:03:51;;;;;;;4.90;2.67;;;;;;;3.17;72.32;100367.06;4369312;32;33369;-81
2022/04/11 06:06:40;;;;;;;5.05;2.47;;;;;;;3.92;70.99;100359.59;4361813;32;35141;-81
2022/04/11 06:09:27;;;;;;;5.60;2.70;;;;;;;3.67;70.13;100360.03;4358560;32;34624;-80
2022/04/11 06:12:14;;;;;;;6.65;2.78;;;;;;;3.46;71.26;100350.75;4360020;32;33984;-80
2022/04/11 06:15:03;;;;;;;6.65;2.97;;;;;;;3.30;72.47;100349.69;4346765;32;34172;-80
2022/04/11 06:17:49;;;;;;;6.40;2.70;;;;;;;3.36;72.24;100354.94;4368294;32;34879;-80
2022/04/11 06:20:35;;;;;;;5.35;2.83;;;;;;;3.75;70.60;100346.88;4368864;32;34474;-79
2022/04/11 06:23:22;;;;;;;5.90;2.87;;;;;;;3.55;71.51;100341.97;4361202;32;35195;-79
2022/04/11 06:26:08;;;;;;;6.55;2.80;;;;;;;3.53;71.28;100343.28;4356498;32;34232;-80
2022/04/11 06:28:55;;;;;;;7.10;3.08;;;;;;;3.66;69.87;100339.41;4358063;32;35954;-80
2022/04/11 06:31:41;;;;;;;4.57;2.40;;;;;;;3.48;70.41;100352.16;4358523;32;34450;-79
2022/04/11 06:34:29;;;;;;;9.02;3.08;;;;;;;4.03;68.57;100343.19;4355603;32;33701;-80
2022/04/11 06:37:16;;;;;;;5.05;2.35;;;;;;;3.85;69.22;100356.25;4357028;32;34329;-81
2022/04/11 06:40:03;;;;;;;6.10;2.45;;;;;;;3.97;69.20;100349.63;4358020;32;34987;-81
2022/04/11 06:42:50;;;;;;;5.78;2.60;;;;;;;4.67;67.13;100341.84;4358053;32;34335;-78
2022/04/11 06:45:43;;;;;;;6.30;2.47;;;;;;;4.78;66.44;100349.03;4364182;32;34194;-79
2022/04/11 06:48:30;;;;;;;7.75;2.30;;;;;;;4.36;66.45;100357.75;4360325;32;33542;-81
2022/04/11 06:51:16;;;;;;;4.85;2.47;;;;;;;5.00;65.44;100350.84;4360991;32;35641;-82
2022/04/11 06:54:04;;;;;;;9.35;2.55;;;;;;;4.81;65.02;100353.94;4358574;32;35462;-82
2022/04/11 06:56:50;;;;;;;7.10;2.25;;;;;;;4.97;65.37;100363.03;4367073;32;34337;-83
2022/04/11 06:59:36;;;;;;;6.28;2.40;;;;;;;5.11;64.96;100364.28;4359005;32;34648;-81
2022/04/11 07:02:22;;;;;;;5.68;2.58;;;;;;;5.15;64.29;100364.56;4358135;32;36005;-78
2022/04/11 07:05:09;;;;;;;5.78;2.37;;;;;;;5.37;63.43;100368.03;4361477;32;34099;-80
2022/04/11 07:07:55;;;;;;;5.37;2.40;;;;;;;5.34;63.36;100374.00;4367108;32;36035;-81
2022/04/11 07:10:44;;;;;;;5.50;2.40;;;;;;;5.54;62.95;100372.53;4358401;32;34302;-81
2022/04/11 07:13:31;;;;;;;6.47;2.90;;;;;;;5.61;63.16;100376.69;4358737;32;34982;-79
2022/04/11 07:16:17;;;;;;;6.78;2.80;;;;;;;5.60;62.97;100369.56;4357561;32;35450;-82
2022/04/11 07:19:03;;;;;;;4.35;2.50;;;;;;;5.66;62.62;100375.87;4360009;32;34798;-78
2022/04/11 07:21:50;;;;;;;5.78;2.78;;;;;;;5.54;62.77;100377.97;4345547;32;35512;-79
2022/04/11 07:24:38;;;;;;;5.07;2.58;;;;;;;5.99;62.51;100373.97;4358395;32;35712;-79
2022/04/11 07:27:25;;;;;;;7.87;2.95;;;;;;;5.91;61.88;100380.69;4356426;32;34616;-82
2022/04/11 07:30:11;;;;;;;4.97;2.83;;;;;;;5.80;61.88;100368.91;4368564;32;36671;-82
2022/04/11 07:32:58;;;;;;;5.07;2.50;;;;;;;6.01;63.02;100366.37;4359605;32;34755;-81
2022/04/11 07:35:44;;;;;;;6.12;3.00;;;;;;;6.08;60.67;100366.94;4358847;32;35973;-84
2022/04/11 07:38:30;;;;;;;6.53;2.65;;;;;;;6.18;61.92;100368.94;4361569;32;35599;-81
2022/04/11 07:41:17;;;;;;;5.05;2.62;;;;;;;6.34;60.49;100365.19;4358885;32;34727;-80
2022/04/11 07:44:03;;;;;;;6.90;3.22;;;;;;;6.17;60.09;100368.09;4361238;32;35618;-79
2022/04/11 07:46:50;;;;;;;5.25;2.17;;;;;;;6.43;59.27;100373.66;4359539;32;34997;-80
2022/04/11 07:49:36;;;;;;;7.75;2.47;;;;;;;6.36;59.91;100367.66;4360906;32;34163;-79
2022/04/11 07:52:23;;;;;;;6.03;2.75;;;;;;;6.73;59.07;100364.78;4374013;32;33972;-81
2022/04/11 07:55:11;;;;;;;7.25;2.60;;;;;;;6.86;59.37;100367.03;4357222;32;34242;-81
2022/04/11 07:57:57;;;;;;;6.72;2.20;;;;;;;7.19;58.21;100365.72;4358692;32;36450;-82
2022/04/11 08:00:44;;;;;;;6.12;2.28;;;;;;;7.43;57.91;100365.19;4353518;32;34731;-79
2022/04/11 08:03:30;;;;;;;5.32;2.50;;;;;;;6.82;56.85;100362.37;4347163;32;34189;-79
2022/04/11 08:06:17;;;;;;;4.05;2.20;;;;;;;7.06;58.22;100365.41;4360068;32;34271;-81
2022/04/11 08:09:03;;;;;;;3.85;2.08;;;;;;;7.24;56.68;100369.53;4372299;32;34670;-83
2022/04/11 08:11:50;;;;;;;6.75;2.55;;;;;;;7.56;55.91;100369.28;4348742;32;34008;-81
2022/04/11 08:14:37;;;;;;;4.18;2.40;;;;;;;7.44;55.71;100375.00;4366002;32;34076;-81
2022/04/11 08:17:23;;;;;;;5.97;2.47;;;;;;;7.14;56.42;100363.00;4359206;32;34638;-80
2022/04/11 08:20:10;;;;;;;6.70;2.58;;;;;;;7.68;56.42;100364.34;4357168;32;36821;-81
2022/04/11 08:23:03;;;;;;;4.00;2.53;;;;;;;7.65;55.33;100352.06;4350860;32;34562;-81
2022/04/11 08:25:49;;;;;;;5.70;2.47;;;;;;;7.77;53.69;100364.62;4364168;32;34203;-82
2022/04/11 08:28:36;;;;;;;3.87;2.30;;;;;;;7.31;55.51;100372.81;4359371;32;34571;-80
2022/04/11 08:31:22;;;;;;;4.70;2.15;;;;;;;7.51;54.07;100361.91;4357887;32;34988;-79
2022/04/11 08:34:09;;;;;;;5.47;2.60;;;;;;;7.58;54.29;100367.91;4336665;32;34303;-78
2022/04/11 08:36:55;;;;;;;6.40;2.40;;;;;;;7.43;53.93;100366.00;4346628;32;33798;-82
2022/04/11 08:39:41;;;;;;;4.45;2.28;;;;;;;7.74;52.62;100355.09;4357699;32;34460;-80
2022/04/11 08:42:28;;;;;;;4.30;2.37;;;;;;;8.04;52.64;100356.94;4358000;32;35921;-83
2022/04/11 08:45:14;;;;;;;5.00;2.53;;;;;;;7.78;53.69;100360.81;4372518;32;34125;-82
2022/04/11 08:48:00;;;;;;;4.07;2.28;;;;;;;7.82;54.12;100362.69;4368787;32;35081;-80
2022/04/11 08:50:47;;;;;;;4.53;2.20;;;;;;;8.49;52.13;100370.78;4373456;32;35189;-79
2022/04/11 08:53:34;;;;;;;4.07;2.20;;;;;;;8.64;51.12;100353.50;4359326;32;34557;-83
2022/04/11 08:56:19;;;;;;;6.15;2.37;;;;;;;8.34;52.39;100358.78;4358578;32;34818;-80
2022/04/11 08:59:06;;;;;;;6.57;3.03;;;;;;;9.01;51.33;100351.09;4358885;32;34219;-79
2022/04/11 09:01:52;;;;;;;7.05;2.55;;;;;;;8.37;52.96;100351.94;4357625;32;34178;-80
2022/04/11 09:04:52;;;;;;;6.62;2.53;;;;;;;8.58;50.14;100352.69;4359928;32;35937;-79
2022/04/11 09:07:50;;;;;;;5.22;2.25;;;;;;;8.60;51.82;100339.59;4348033;32;36980;-79
2022/04/11 09:10:37;;;;;;;6.07;2.65;;;;;;;8.55;49.66;100348.59;4345794;32;33965;-79
2022/04/11 09:13:24;;;;;;;4.20;2.30;;;;;;;9.01;50.63;100345.63;4356326;32;34307;-79
2022/04/11 09:16:11;;;;;;;5.47;2.10;;;;;;;9.48;48.67;100342.53;4347009;32;34510;-80
2022/04/11 09:18:57;;;;;;;5.35;2.65;;;;;;;9.38;48.33;100344.25;4372356;32;34627;-78
2022/04/11 09:21:44;;;;;;;6.28;3.00;;;;;;;9.37;48.20;100344.56;4358769;32;33681;-79
2022/04/11 09:24:31;;;;;;;4.35;2.30;;;;;;;9.25;49.78;100336.72;4363872;32;34286;-79
2022/04/11 09:27:25;;;;;;;5.12;2.55;;;;;;;9.44;48.69;100337.66;4345848;32;34577;-81
2022/04/11 09:30:27;;;;;;;3.60;2.22;;;;;;;8.77;50.15;100339.22;4354978;32;34569;-79
2022/04/11 09:33:13;;;;;;;3.25;1.95;;;;;;;8.69;50.16;100342.53;4364454;32;34858;-84
2022/04/11 09:35:59;;;;;;;7.95;2.25;;;;;;;8.07;49.96;100348.19;4353328;32;34176;-83
2022/04/11 09:38:57;;;;;;;9.18;2.67;;;;;;;8.50;50.50;100345.09;4344276;32;34653;-78
2022/04/11 09:41:45;;;;;;;4.57;2.28;;;;;;;8.93;50.16;100321.63;4350161;32;35497;-79
2022/04/11 09:44:34;;;;;;;5.10;2.65;;;;;;;8.65;50.97;100338.72;4344826;32;34766;-79
2022/04/11 09:47:20;;;;;;;5.40;2.42;;;;;;;9.24;48.91;100326.88;4334906;32;34330;-80
2022/04/11 09:50:08;;;;;;;5.32;2.90;;;;;;;9.50;47.40;100324.75;4356595;32;34613;-80
2022/04/11 09:53:06;;;;;;;4.97;2.83;;;;;;;9.08;48.68;100328.91;4359723;32;35181;-78
2022/04/11 09:55:53;;;;;;;5.07;2.45;;;;;;;9.02;50.24;100340.97;4356146;32;35031;-81
2022/04/11 09:58:40;;;;;;;5.43;2.45;;;;;;;8.72;48.98;100336.50;4359318;32;34303;-78
2022/04/11 10:01:27;;;;;;;4.35;2.60;;;;;;;9.43;49.47;100336.03;4366132;32;34857;-78
2022/04/11 10:04:13;;;;;;;6.40;2.42;;;;;;;8.89;47.58;100338.87;4364872;32;35069;-78
2022/04/11 10:06:59;;;;;;;6.53;2.60;;;;;;;8.28;50.14;100337.22;4359162;32;33638;-79
2022/04/11 10:09:46;;;;;;;4.40;2.08;;;;;;;9.14;49.30;100337.91;4369491;32;35284;-77
2022/04/11 10:12:32;;;;;;;4.37;2.30;;;;;;;9.00;46.63;100322.13;4363822;32;35934;-77
2022/04/11 10:15:18;;;;;;;7.93;2.35;;;;;;;8.64;47.76;100334.38;4370808;32;35608;-78
2022/04/11 10:18:06;;;;;;;6.05;1.90;;;;;;;8.33;47.84;100335.28;4348184;32;35046;-77
2022/04/11 10:20:58;;;;;;;3.75;1.80;;;;;;;9.26;45.33;100332.88;4347197;32;33732;-77
2022/04/11 10:24:33;;;;;;;6.50;2.42;;;;;;;9.93;41.64;100332.28;4362976;32;34467;-79
2022/04/11 10:27:22;;;;;;;4.03;2.20;;;;;;;8.26;45.42;100347.62;4349897;32;34514;-78
2022/04/11 10:30:29;;;;;;;3.75;2.42;;;;;;;9.12;44.78;100335.44;4370295;32;34217;-77
2022/04/11 10:33:16;;;;;;;3.90;2.20;;;;;;;9.46;43.55;100335.44;4358790;32;35361;-78
2022/04/11 10:36:02;;;;;;;4.32;1.62;;;;;;;10.35;41.89;100329.63;4346332;32;34954;-78
2022/04/11 10:39:14;;;;;;;3.03;1.50;;;;;;;9.38;39.76;100327.84;4354970;32;34369;-78
2022/04/11 10:42:02;;;;;;;4.15;2.05;;;;;;;9.91;39.26;100327.91;4355610;32;34183;-81
2022/04/11 10:44:54;;;;;;;2.72;1.60;;;;;;;10.74;37.41;100331.34;4355391;32;34312;-80
2022/04/11 10:47:47;;;;;;;6.72;2.40;;;;;;;10.33;38.25;100339.25;4352927;32;35928;-80
2022/04/11 10:50:34;;;;;;;2.12;1.55;;;;;;;9.36;40.34;100334.72;4356876;32;34154;-80
2022/04/11 10:53:24;;;;;;;2.60;1.50;;;;;;;8.73;39.86;100335.41;4338828;32;34961;-79
2022/04/11 10:56:11;;;;;;;3.30;1.87;;;;;;;8.54;38.88;100330.59;4365408;32;35366;-78
2022/04/11 10:58:58;;;;;;;3.85;1.65;;;;;;;8.66;41.29;100326.72;4368643;32;34954;-80
2022/04/11 11:01:44;;;;;;;4.20;2.17;;;;;;;9.58;40.65;100323.31;4363345;32;35077;-78
2022/04/11 11:04:42;;;;;;;3.65;2.05;;;;;;;9.35;41.96;100328.44;4360472;32;35016;-77
2022/04/11 11:07:30;;;;;;;5.12;1.58;;;;;;;10.27;40.10;100332.22;4361469;32;35687;-78
2022/04/11 11:10:27;;;;;;;3.17;2.00;;;;;;;9.12;38.55;100323.69;4353995;32;34599;-78
2022/04/11 11:13:23;;;;;;;2.60;1.62;;;;;;;9.81;37.54;100330.75;4362138;32;34670;-77
2022/04/11 11:16:12;;;;;;;3.72;2.05;;;;;;;10.64;37.48;100330.66;4375013;32;34180;-78
2022/04/11 11:19:02;;;;;;;5.57;2.37;;;;;;;11.10;37.29;100310.81;4373911;32;34211;-77
2022/04/11 11:21:48;;;;;;;3.37;2.28;;;;;;;10.49;38.10;100317.97;4364666;32;34880;-77
2022/04/11 11:24:35;;;;;;;3.80;2.30;;;;;;;9.50;38.44;100318.47;4368181;32;34592;-77
2022/04/11 11:27:21;;;;;;;6.45;2.70;;;;;;;8.78;39.78;100319.00;4369293;32;34967;-77
2022/04/11 11:30:08;;;;;;;3.55;2.40;;;;;;;9.28;40.85;100316.19;4358661;32;35572;-78
2022/04/11 11:33:00;;;;;;;5.62;2.55;;;;;;;9.74;40.23;100308.41;4363348;32;34724;-78
2022/04/11 11:35:51;;;;;;;5.90;2.62;;;;;;;10.32;39.73;100311.06;4353082;32;34123;-77
2022/04/11 11:38:37;;;;;;;5.32;2.58;;;;;;;10.67;38.17;100310.88;4363282;32;34157;-78
2022/04/11 11:41:25;;;;;;;4.50;2.10;;;;;;;10.76;36.22;100296.22;4347189;32;34166;-78
2022/04/11 11:44:11;;;;;;;2.83;1.85;;;;;;;11.45;35.02;100301.19;4348396;32;35603;-77
2022/04/11 11:47:02;;;;;;;3.30;2.08;;;;;;;10.65;35.16;100300.22;4373898;32;34510;-82
2022/04/11 11:49:49;;;;;;;3.33;2.20;;;;;;;10.44;35.35;100307.06;4384439;32;35043;-77
2022/04/11 11:52:38;;;;;;;4.57;2.45;;;;;;;10.46;37.21;100302.13;4374999;32;35543;-78
2022/04/11 11:55:24;;;;;;;4.85;2.50;;;;;;;10.38;37.84;100311.81;4371881;32;34992;-78
2022/04/11 11:58:11;;;;;;;3.55;2.20;;;;;;;10.78;37.81;100299.47;4339451;32;34708;-79
2022/04/11 12:00:57;;;;;;;3.78;2.03;;;;;;;10.61;38.17;100306.59;4359804;32;35130;-79
2022/04/11 12:06:53;;;;;;;4.40;2.22;;;;;;;10.83;38.19;100295.03;4358546;32;34791;-80
2022/04/11 12:09:42;;;;;;;3.67;2.45;;;;;;;10.97;37.46;100298.66;4347342;32;34893;-77
2022/04/11 12:12:28;;;;;;;3.62;2.17;;;;;;;11.58;37.39;100283.94;4347164;32;35283;-78
2022/04/11 12:15:15;;;;;;;4.93;2.28;;;;;;;12.17;34.63;100280.66;4360411;32;34777;-78
2022/04/11 12:18:04;;;;;;;5.00;2.47;;;;;;;10.78;37.08;100288.50;4367988;32;35971;-77
2022/04/11 12:20:51;;;;;;;4.57;2.67;;;;;;;11.85;35.52;100285.09;4358986;32;35588;-77
2022/04/11 12:23:48;;;;;;;4.20;1.85;;;;;;;11.22;35.78;100292.78;4359283;32;33796;-77
2022/04/11 12:26:39;;;;;;;3.83;2.28;;;;;;;10.91;36.20;100292.44;4368517;32;34649;-78
2022/04/11 12:29:27;;;;;;;3.77;2.40;;;;;;;11.34;35.01;100275.03;4358709;32;35390;-78
2022/04/11 12:32:14;;;;;;;4.15;2.60;;;;;;;11.49;35.45;100285.75;4346203;32;35428;-78
2022/04/11 12:35:13;;;;;;;3.22;2.17;;;;;;;11.90;33.49;100263.87;4366537;32;34173;-79
2022/04/11 12:38:07;;;;;;;3.67;2.35;;;;;;;13.26;33.21;100263.09;4346655;32;121955;-80
2022/04/11 12:40:54;;;;;;;2.95;2.25;;;;;;;12.64;31.88;100259.34;4347028;32;35107;-80
2022/04/11 12:44:07;;;;;;;2.83;1.83;;;;;;;12.67;33.66;100269.72;4352388;32;35713;-79
2022/04/11 12:46:56;;;;;;;3.40;1.80;;;;;;;12.05;33.39;100257.28;4357081;32;34189;-79
2022/04/11 12:49:51;;;;;;;4.28;2.28;;;;;;;12.00;32.14;100260.13;4357755;32;35344;-78
2022/04/11 12:52:37;;;;;;;3.55;2.30;;;;;;;12.43;33.35;100248.78;4367343;32;36041;-77
2022/04/11 12:55:26;;;;;;;3.55;2.35;;;;;;;12.16;33.90;100255.13;4347418;32;36303;-78
2022/04/11 12:58:12;;;;;;;6.32;2.47;;;;;;;11.40;34.52;100262.84;4355441;32;34069;-77
2022/04/11 13:00:58;;;;;;;5.10;2.60;;;;;;;10.62;36.04;100265.19;4356841;32;34683;-77
2022/04/11 13:03:44;;;;;;;5.55;2.67;;;;;;;10.07;37.95;100265.59;4356945;32;34514;-81
2022/04/11 13:06:30;;;;;;;4.93;2.60;;;;;;;10.59;36.85;100263.06;4358415;32;35797;-79
2022/04/11 13:09:18;;;;;;;5.05;2.70;;;;;;;10.20;37.29;100247.63;4347273;32;35249;-79
2022/04/11 13:12:12;;;;;;;3.47;2.20;;;;;;;10.02;37.21;100248.44;4357111;32;34267;-80